createdAt,value
2019-01-20T00:01:43.914Z,-2.53
2019-01-20T00:04:59.670Z,-2.44
2019-01-20T00:08:15.526Z,-2.66
2019-01-20T00:11:31.520Z,-3.27
2019-01-20T00:14:53.941Z,-2.65
2019-01-20T00:18:09.240Z,-2.89
2019-01-20T00:21:31.631Z,-2.33
2019-01-20T00:24:47.186Z,-2.33
2019-01-20T00:28:09.840Z,-2.28
2019-01-20T00:31:24.780Z,-2.62
2019-01-20T00:34:47.497Z,-2.70
2019-01-20T00:38:03.369Z,-2.76
2019-01-20T00:41:24.021Z,-2.73
2019-01-20T00:44:43.814Z,-2.68
2019-01-20T00:47:59.104Z,-2.59
2019-01-20T00:55:08.334Z,-2.73
2019-01-20T00:58:30.729Z,-2.67
2019-01-20T01:01:46.425Z,-2.71
2019-01-20T01:05:08.909Z,-2.68
2019-01-20T01:08:22.554Z,-2.81
2019-01-20T01:11:38.449Z,-3.03
2019-01-20T01:14:53.855Z,-2.97
2019-01-20T01:18:09.141Z,-2.87
2019-01-20T01:21:31.542Z,-3.05
2019-01-20T01:24:47.124Z,-2.97
2019-01-20T01:28:02.672Z,-3.01
2019-01-20T01:31:25.103Z,-3.03
2019-01-20T01:34:40.785Z,-3.06
2019-01-20T01:37:55.869Z,-2.87
2019-01-20T01:41:18.247Z,-3.07
2019-01-20T01:44:33.604Z,-3.17
2019-01-20T01:47:56.353Z,-3.22
2019-01-20T01:51:12.167Z,-3.21
2019-01-20T01:54:34.941Z,-3.17
2019-01-20T01:57:51.387Z,-3.17
2019-01-20T02:01:13.889Z,-2.87
2019-01-20T02:04:29.449Z,-2.98
2019-01-20T02:07:51.836Z,-2.95
2019-01-20T02:11:07.202Z,-3.01
2019-01-20T02:14:29.624Z,-3.19
2019-01-20T02:17:43.220Z,-3.29
2019-01-20T02:20:59.945Z,-3.38
2019-01-20T02:24:22.640Z,-3.08
2019-01-20T02:27:38.618Z,-3.22
2019-01-20T02:30:54.486Z,-3.28
2019-01-20T02:34:17.196Z,-3.19
2019-01-20T02:37:33.420Z,-3.24
2019-01-20T02:40:56.135Z,-3.32
2019-01-20T02:44:12.054Z,-3.29
2019-01-20T02:47:34.743Z,-3.30
2019-01-20T02:50:50.927Z,-3.21
2019-01-20T02:53:55.245Z,-3.37
2019-01-20T02:57:10.302Z,-3.37
2019-01-20T03:00:32.667Z,-3.45
2019-01-20T03:03:47.711Z,-3.46
2019-01-20T03:07:04.008Z,-3.02
2019-01-20T03:10:19.443Z,-3.15
2019-01-20T03:13:34.785Z,-3.38
2019-01-20T03:16:57.166Z,-3.36
2019-01-20T03:20:14.209Z,-3.43
2019-01-20T03:23:29.947Z,-3.57
2019-01-20T03:26:52.440Z,-3.49
2019-01-20T03:30:10.235Z,-3.44
2019-01-20T03:33:25.965Z,-3.46
2019-01-20T03:36:48.377Z,-3.46
2019-01-20T03:40:04.918Z,-4.01
2019-01-20T03:43:27.397Z,-3.57
2019-01-20T03:46:43.039Z,-3.46
2019-01-20T03:50:06.903Z,-3.64
2019-01-20T03:53:22.090Z,-4.30
2019-01-20T03:56:44.831Z,-3.70
2019-01-20T04:00:00.265Z,-3.50
2019-01-20T04:03:23.087Z,-3.72
2019-01-20T04:06:39.024Z,-3.83
2019-01-20T04:13:42.935Z,-3.54
2019-01-20T04:17:05.744Z,-3.64
2019-01-20T04:20:21.666Z,-3.61
2019-01-20T04:23:44.363Z,-3.61
2019-01-20T04:27:00.400Z,-3.28
2019-01-20T04:30:23.131Z,-3.52
2019-01-20T04:33:39.008Z,-3.74
2019-01-20T04:36:54.359Z,-3.67
2019-01-20T04:40:19.586Z,-3.49
2019-01-20T04:43:35.457Z,-3.46
2019-01-20T04:46:50.595Z,-3.48
2019-01-20T04:50:14.959Z,-3.54
2019-01-20T04:53:30.978Z,-3.63
2019-01-20T04:56:53.387Z,-3.61
2019-01-20T05:00:11.069Z,-3.75
2019-01-20T05:03:34.446Z,-3.62
2019-01-20T05:06:50.063Z,-3.85
2019-01-20T05:10:13.313Z,-3.70
2019-01-20T05:13:28.320Z,-3.35
2019-01-20T05:16:51.068Z,-3.18
2019-01-20T05:20:07.004Z,-3.11
2019-01-20T05:23:22.290Z,-3.77
2019-01-20T05:26:44.675Z,-3.08
2019-01-20T05:30:02.205Z,-3.23
2019-01-20T05:33:24.769Z,-3.39
2019-01-20T05:36:40.407Z,-3.59
2019-01-20T05:40:22.948Z,-3.52
2019-01-20T05:43:38.295Z,-3.39
2019-01-20T05:47:01.302Z,-3.58
2019-01-20T05:50:17.049Z,-3.45
2019-01-20T05:53:39.437Z,-3.57
2019-01-20T05:56:54.799Z,-3.58
2019-01-20T06:00:36.875Z,-3.58
2019-01-20T06:03:52.442Z,-3.49
2019-01-20T06:07:14.837Z,-3.26
2019-01-20T06:10:30.173Z,-3.20
2019-01-20T06:13:52.854Z,-3.08
2019-01-20T06:17:07.850Z,-3.13
2019-01-20T06:20:30.936Z,-3.09
2019-01-20T06:23:46.558Z,-3.28
2019-01-20T06:27:02.327Z,-3.29
2019-01-20T06:34:41.018Z,-3.36
2019-01-20T06:37:56.902Z,-3.80
2019-01-20T06:41:19.286Z,-3.91
2019-01-20T06:44:34.577Z,-3.95
2019-01-20T06:47:50.136Z,-3.96
2019-01-20T06:51:12.812Z,-3.98
2019-01-20T06:54:28.616Z,-3.78
2019-01-20T06:57:51.338Z,-3.69
2019-01-20T07:01:07.103Z,-3.95
2019-01-20T07:04:22.848Z,-3.78
2019-01-20T07:07:45.250Z,-3.97
2019-01-20T07:11:01.040Z,-4.04
2019-01-20T07:14:17.875Z,-4.20
2019-01-20T07:17:40.343Z,-4.35
2019-01-20T07:20:56.116Z,-3.95
2019-01-20T07:24:18.522Z,-3.99
2019-01-20T07:27:33.636Z,-3.90
2019-01-20T07:30:56.625Z,-4.22
2019-01-20T07:34:11.659Z,-3.55
2019-01-20T07:37:34.031Z,-3.47
2019-01-20T07:40:49.371Z,-3.45
2019-01-20T07:44:12.734Z,-3.42
2019-01-20T07:47:28.702Z,-4.08
2019-01-20T07:50:51.093Z,-3.47
2019-01-20T07:54:06.100Z,-3.73
2019-01-20T07:57:21.608Z,-3.32
2019-01-20T08:00:44.372Z,-3.41
2019-01-20T08:04:00.112Z,-3.36
2019-01-20T08:07:15.377Z,-3.24
2019-01-20T08:10:37.738Z,-3.32
2019-01-20T08:13:52.773Z,-3.33
2019-01-20T08:17:15.506Z,-3.27
2019-01-20T08:20:30.657Z,-3.28
2019-01-20T08:23:53.365Z,-3.19
2019-01-20T08:27:08.608Z,-3.21
2019-01-20T08:30:30.978Z,-3.17
2019-01-20T08:33:46.213Z,-3.21
2019-01-20T08:37:08.922Z,-3.13
2019-01-20T08:40:25.266Z,-3.13
2019-01-20T08:43:47.656Z,-3.12
2019-01-20T08:47:22.704Z,-3.43
2019-01-20T08:50:45.231Z,-3.13
2019-01-20T08:54:03.385Z,-3.08
2019-01-20T08:57:06.293Z,-3.05
2019-01-20T09:00:14.070Z,-3.10
2019-01-20T09:03:17.106Z,-3.10
2019-01-20T09:06:20.787Z,-3.20
2019-01-20T09:09:24.122Z,-3.18
2019-01-20T09:12:27.440Z,-3.07
2019-01-20T09:15:30.355Z,-2.05
2019-01-20T09:18:33.284Z,-2.57
2019-01-20T09:21:36.630Z,-2.77
2019-01-20T09:24:39.918Z,13.32
2019-01-20T09:27:43.203Z,11.85
2019-01-20T09:30:46.792Z,5.52
2019-01-20T09:33:49.765Z,1.59
2019-01-20T09:36:54.195Z,0.06
2019-01-20T09:39:57.114Z,-0.98
2019-01-20T09:43:00.438Z,-1.02
2019-01-20T09:46:03.580Z,-1.54
2019-01-20T09:49:06.484Z,-1.71
2019-01-20T09:52:09.421Z,-1.78
2019-01-20T09:55:13.714Z,-1.87
2019-01-20T09:58:16.915Z,-2.05
2019-01-20T10:01:20.203Z,-2.06
2019-01-20T10:04:23.567Z,-2.02
2019-01-20T10:07:26.866Z,-2.16
2019-01-20T10:10:30.209Z,-2.15
2019-01-20T10:13:33.544Z,-2.24
2019-01-20T10:16:36.461Z,-2.21
2019-01-20T10:19:39.727Z,-2.15
2019-01-20T10:22:42.694Z,-2.18
2019-01-20T10:25:45.990Z,-2.14
2019-01-20T10:28:49.654Z,-2.13
2019-01-20T10:31:52.584Z,-2.07
2019-01-20T10:34:56.108Z,-1.89
2019-01-20T10:38:01.719Z,-1.87
2019-01-20T10:41:05.359Z,-1.69
2019-01-20T10:44:08.630Z,-1.52
2019-01-20T10:47:11.558Z,-1.57
2019-01-20T10:50:15.940Z,-1.49
2019-01-20T10:53:19.224Z,-1.50
2019-01-20T10:56:22.573Z,-1.52
2019-01-20T10:59:25.481Z,-1.61
2019-01-20T11:02:28.547Z,-1.45
2019-01-20T11:05:32.766Z,-1.52
2019-01-20T11:08:35.906Z,-1.40
2019-01-20T11:11:40.636Z,-1.43
2019-01-20T11:14:44.487Z,-1.38
2019-01-20T11:17:47.746Z,-1.34
2019-01-20T11:20:50.655Z,-1.33
2019-01-20T11:23:53.905Z,-1.26
2019-01-20T11:26:57.478Z,-1.28
2019-01-20T11:30:00.766Z,-1.21
2019-01-20T11:33:04.279Z,-1.16
2019-01-20T11:36:07.548Z,-1.16
2019-01-20T11:39:10.548Z,-0.42
2019-01-20T11:42:14.162Z,-0.05
2019-01-20T11:45:23.544Z,-0.62
2019-01-20T11:48:26.475Z,-0.72
2019-01-20T11:51:29.382Z,-0.75
2019-01-20T11:54:32.332Z,-0.74
2019-01-20T11:57:35.553Z,-0.68
2019-01-20T12:00:38.859Z,-0.70
2019-01-20T12:03:42.142Z,-0.65
2019-01-20T12:06:45.073Z,-0.60
2019-01-20T12:09:48.323Z,-0.71
2019-01-20T12:13:10.821Z,-0.58
2019-01-20T12:16:13.742Z,-0.58
2019-01-20T12:19:16.663Z,-0.58
2019-01-20T12:22:19.842Z,-0.54
2019-01-20T12:25:23.423Z,-0.46
2019-01-20T12:28:26.384Z,-0.35
2019-01-20T12:31:29.603Z,-0.34
2019-01-20T12:35:16.534Z,-0.30
2019-01-20T12:38:19.788Z,6.71
2019-01-20T12:41:23.318Z,14.13
2019-01-20T12:44:31.397Z,6.39
2019-01-20T12:47:31.455Z,3.49
2019-01-20T12:50:34.759Z,1.90
2019-01-20T12:53:37.652Z,1.33
2019-01-20T12:56:40.974Z,0.98
2019-01-20T12:59:44.238Z,0.62
2019-01-20T13:02:47.373Z,0.59
2019-01-20T13:05:50.353Z,0.43
2019-01-20T13:08:53.252Z,0.28
2019-01-20T13:11:56.538Z,0.24
2019-01-20T13:14:59.798Z,0.25
2019-01-20T13:18:03.160Z,0.14
2019-01-20T13:21:06.210Z,0.17
2019-01-20T13:24:09.132Z,0.16
2019-01-20T13:27:12.393Z,0.18
2019-01-20T13:30:18.550Z,0.10
2019-01-20T13:33:21.484Z,0.14
2019-01-20T13:36:24.402Z,0.15
2019-01-20T13:39:27.306Z,0.10
2019-01-20T13:42:30.913Z,0.14
2019-01-20T13:45:33.806Z,0.11
2019-01-20T13:48:37.074Z,0.05
2019-01-20T13:51:39.999Z,0.15
2019-01-20T13:54:42.935Z,0.11
2019-01-20T13:57:46.250Z,0.16
2019-01-20T14:00:49.736Z,0.15
2019-01-20T14:03:52.950Z,0.01
2019-01-20T14:06:55.856Z,0.06
2019-01-20T14:09:58.784Z,0.18
2019-01-20T14:13:02.162Z,0.21
2019-01-20T14:16:05.119Z,0.16
2019-01-20T14:19:08.049Z,0.16
2019-01-20T14:22:10.962Z,0.72
2019-01-20T14:25:17.011Z,1.13
2019-01-20T14:28:20.330Z,0.49
2019-01-20T14:31:23.256Z,0.34
2019-01-20T14:34:26.904Z,0.22
2019-01-20T14:37:29.832Z,0.03
2019-01-20T14:40:33.145Z,-0.05
2019-01-20T14:43:36.068Z,0.03
2019-01-20T14:46:39.046Z,-0.10
2019-01-20T14:49:41.975Z,-0.22
2019-01-20T14:52:44.982Z,-0.29
2019-01-20T14:56:00.587Z,-0.25
2019-01-20T14:59:23.368Z,-0.22
2019-01-20T15:02:38.454Z,-0.28
2019-01-20T15:05:53.877Z,-0.34
2019-01-20T15:09:16.280Z,-0.37
2019-01-20T15:12:31.686Z,-0.40
2019-01-20T15:15:46.679Z,-0.54
2019-01-20T15:19:09.067Z,-0.55
2019-01-20T15:22:12.417Z,-0.49
2019-01-20T15:25:34.830Z,-0.53
2019-01-20T15:28:50.221Z,-0.62
2019-01-20T15:32:13.028Z,-0.63
2019-01-20T15:35:28.632Z,-0.67
2019-01-20T15:38:51.392Z,-0.73
2019-01-20T15:42:07.391Z,-0.94
2019-01-20T15:45:30.056Z,-1.35
2019-01-20T15:48:45.865Z,-0.98
2019-01-20T15:52:09.256Z,-1.01
2019-01-20T15:55:25.012Z,-1.00
2019-01-20T15:58:40.861Z,-1.23
2019-01-20T16:01:56.298Z,-0.94
2019-01-20T16:05:11.429Z,-1.09
2019-01-20T16:08:26.671Z,-1.07
2019-01-20T16:11:49.347Z,-1.21
2019-01-20T16:15:07.236Z,-1.29
2019-01-20T16:18:22.664Z,-1.29
2019-01-20T16:21:45.716Z,-1.33
2019-01-20T16:25:01.535Z,-1.44
2019-01-20T16:28:24.991Z,-1.43
2019-01-20T16:31:40.511Z,-1.19
2019-01-20T16:35:03.710Z,-1.42
2019-01-20T16:38:19.341Z,-1.32
2019-01-20T16:45:42.769Z,-1.41
2019-01-20T16:49:05.159Z,-1.55
2019-01-20T16:52:21.136Z,-1.51
2019-01-20T16:55:44.174Z,-1.60
2019-01-20T16:58:59.964Z,-1.64
2019-01-20T17:02:15.209Z,-1.79
2019-01-20T17:05:37.609Z,-1.75
2019-01-20T17:08:52.962Z,-1.76
2019-01-20T17:12:15.341Z,-1.63
2019-01-20T17:15:39.116Z,-1.55
2019-01-20T17:18:56.731Z,-1.62
2019-01-20T17:22:12.224Z,-1.70
2019-01-20T17:25:27.547Z,-1.88
2019-01-20T17:28:51.011Z,-1.93
2019-01-20T17:32:06.086Z,-1.87
2019-01-20T17:35:28.547Z,-1.84
2019-01-20T17:38:44.649Z,-1.89
2019-01-20T17:42:07.052Z,-1.99
2019-01-20T17:45:26.256Z,-2.05
2019-01-20T17:48:48.649Z,-1.92
2019-01-20T17:52:03.791Z,-2.00
2019-01-20T17:55:26.224Z,-1.35
2019-01-20T17:58:41.809Z,-1.67
2019-01-20T18:01:57.212Z,-2.54
2019-01-20T18:05:13.199Z,-2.16
2019-01-20T18:08:35.863Z,-2.32
2019-01-20T18:11:51.334Z,-2.21
2019-01-20T18:15:14.630Z,-2.32
2019-01-20T18:18:30.047Z,-2.64
2019-01-20T18:21:46.012Z,-2.34
2019-01-20T18:25:10.457Z,-2.33
2019-01-20T18:28:26.266Z,-2.40
2019-01-20T18:31:41.441Z,-2.62
2019-01-20T18:35:04.442Z,-2.43
2019-01-20T18:38:19.781Z,-2.89
2019-01-20T18:41:42.183Z,-2.36
2019-01-20T18:44:57.415Z,-2.43
2019-01-20T18:48:13.585Z,-2.59
2019-01-20T18:51:35.988Z,-3.06
2019-01-20T18:54:51.460Z,-2.55
2019-01-20T18:58:14.302Z,-2.52
2019-01-20T19:01:29.531Z,-2.55
2019-01-20T19:04:45.064Z,-2.50
2019-01-20T19:08:01.042Z,-2.91
2019-01-20T19:11:23.543Z,-2.44
2019-01-20T19:14:39.564Z,-2.53
2019-01-20T19:17:54.857Z,-3.02
2019-01-20T19:21:17.946Z,-2.56
2019-01-20T19:24:34.134Z,-2.54
2019-01-20T19:27:57.145Z,-2.55
2019-01-20T19:31:13.998Z,-2.66
2019-01-20T19:34:37.808Z,-3.03
2019-01-20T19:37:55.213Z,-2.75
2019-01-20T19:41:19.361Z,-2.77
2019-01-20T19:44:35.479Z,-2.77
2019-01-20T19:47:59.601Z,-2.78
2019-01-20T19:51:16.920Z,-2.76
2019-01-20T19:54:41.775Z,-2.82
2019-01-20T19:57:58.640Z,-2.84
2019-01-20T20:01:05.110Z,-2.84
2019-01-20T20:04:32.856Z,-2.86
2019-01-20T20:07:57.596Z,-2.90
2019-01-20T20:11:14.253Z,-2.93
2019-01-20T20:14:39.801Z,-3.03
2019-01-20T20:17:57.552Z,-2.96
2019-01-20T20:21:22.879Z,-2.90
2019-01-20T20:24:40.292Z,-2.95
2019-01-20T20:28:05.428Z,-3.44
2019-01-20T20:31:23.335Z,-3.58
2019-01-20T20:34:48.493Z,-2.97
2019-01-20T20:38:06.143Z,-3.60
2019-01-20T20:41:23.862Z,-3.06
2019-01-20T20:44:48.924Z,-3.06
2019-01-20T20:48:06.299Z,-3.08
2019-01-20T20:51:23.208Z,-3.31
2019-01-20T20:54:47.322Z,-3.09
2019-01-20T20:58:03.910Z,-3.57
2019-01-20T21:01:28.899Z,-2.37
2019-01-20T21:04:46.307Z,-2.38
2019-01-20T21:08:09.014Z,-2.90
2019-01-20T21:11:25.030Z,-3.04
2019-01-20T21:14:47.947Z,-3.14
2019-01-20T21:18:03.974Z,-3.16
2019-01-20T21:21:26.764Z,-3.80
2019-01-20T21:25:04.250Z,-3.23
2019-01-20T21:28:26.647Z,-3.26
2019-01-20T21:31:42.710Z,-3.63
2019-01-20T21:35:06.775Z,-3.19
2019-01-20T21:38:22.081Z,-3.30
2019-01-20T21:41:44.766Z,-3.40
2019-01-20T21:45:01.279Z,-3.39
2019-01-20T21:48:17.086Z,-3.39
2019-01-20T21:51:39.496Z,-3.46
2019-01-20T21:54:42.506Z,-3.55
2019-01-20T21:57:57.929Z,-3.43
2019-01-20T22:01:20.652Z,-3.37
2019-01-20T22:04:36.546Z,-3.93
2019-01-20T22:07:59.310Z,-3.43
2019-01-20T22:11:15.210Z,-3.41
2019-01-20T22:14:37.609Z,-3.47
2019-01-20T22:17:51.764Z,-3.85
2019-01-20T22:21:14.779Z,-3.55
2019-01-20T22:24:30.243Z,-3.46
2019-01-20T22:27:52.638Z,-3.50
2019-01-20T22:31:07.779Z,-3.84
2019-01-20T22:34:23.563Z,-3.46
2019-01-20T22:37:45.965Z,-3.65
2019-01-20T22:41:01.322Z,-3.95
2019-01-20T22:44:16.805Z,-3.45
2019-01-20T22:47:39.176Z,-3.71
2019-01-20T22:50:54.260Z,-3.88
2019-01-20T22:54:16.654Z,-3.20
2019-01-20T22:57:32.131Z,-3.11
2019-01-20T23:04:46.255Z,-3.30
2019-01-20T23:08:02.424Z,-3.51
2019-01-20T23:11:18.597Z,-3.73
2019-01-20T23:14:41.007Z,-3.74
2019-01-20T23:17:56.344Z,-3.85
2019-01-20T23:21:11.728Z,-4.38
2019-01-20T23:24:34.209Z,-3.95
2019-01-20T23:27:50.526Z,-3.96
2019-01-20T23:31:13.092Z,-4.00
2019-01-20T23:34:28.745Z,-4.04
2019-01-20T23:37:51.504Z,-3.98
2019-01-20T23:41:07.503Z,-3.84
2019-01-20T23:44:30.228Z,-4.00
2019-01-20T23:47:45.753Z,-3.77
2019-01-20T23:51:08.461Z,-3.84
2019-01-20T23:54:24.492Z,-3.92
